Historyczne dane pomiarowe

Dodano dane terminowe – wersja testowa.

Dane z okresu 1951-2019

Wersja bazy: 1.34 [2019-03-16, lista zmian], aktualizacja planowana na 2019-04-15

Dane meteo z obszaru Polski uzyskane na podstawie danych udostępnionych przez Instytut Meteorologii i Gospodarki Wodnej – Państwowy Instytut Badawczy.

 

Wybierz Datę:    

       

TemperaturaWilgotnośćWiatrCiśnienieOpadyŚniegCzas trwania zjawisk
 Stacja t tx tn tng RH VA  wxwx mslp ppp RRR   cm mm wxwxwxwxwxwxwx
1983-08-14 14.2 20.4 8.5 6.1-- 5.3 3.0---- 0.0------------
1983-08-13 15.6 22.1 12.8 12.4-- 4.7 4.3---- 0.4------------
1983-08-12 20.5 26.2 11.7 9.7-- 3.7 3.7---- 12.8------------
1983-08-11 20.9 28.6 11.3 9.5-- 2.3 0.7---- 0.0------------
1983-08-10 20.2 27.0 13.4 11.8-- 2.7 1.0---- 0.0------------
1983-08-09 19.6 26.6 11.4 10.3-- 1.0 1.3---- 0.0------------
1983-08-08 18.6 26.0 15.3 12.7-- 5.3 1.7---- 6.5------------
1983-08-07 16.6 23.5 11.7 9.0-- 7.7 1.3---- 5.4------------
1983-08-06 15.9 22.1 10.1 6.6-- 6.3 1.7---- 0.0------------
1983-08-05 13.8 19.0 10.5 10.5-- 6.0 1.3---- 0.0------------
1983-08-04 12.2 13.5 10.7 10.8-- 8.0 4.0---- 13.5------------
1983-08-03 14.5 23.3 11.8 12.0-- 8.0 4.7---- 25.5------------
1983-08-02 23.0 29.8 17.9 14.8-- 5.3 2.3---- 0.0------------
1983-08-01 24.6 34.3 13.6 7.5-- 2.7 3.0---- 0.0------------
1983-07-31 18.3 28.2 5.5 3.1-- 0.0 0.7---- 0.0------------
1983-07-30 18.6 22.9 15.8 14.7-- 4.0 4.3---- 0.0------------
1983-07-29 18.8 24.6 13.6 9.4-- 3.0 3.0---- 2.2------------
1983-07-28 23.8 30.9 18.8 16.4-- 1.7 2.7---- 0.0------------
1983-07-27 24.4 35.9 11.8 8.7-- 4.0 1.7---- 0.0------------
1983-07-26 21.8 30.0 9.8 6.4-- 0.0 1.0---- 0.0------------
1983-07-25 18.7 26.5 8.1 4.0-- 0.0 0.7---- 0.0------------
1983-07-24 18.8 25.0 9.7 7.3-- 2.7 1.3---- 0.0------------
1983-07-23 19.3 26.6 11.0 7.0-- 0.3 2.7---- 0.0------------
1983-07-22 14.8 19.0 10.4 6.1-- 8.0 2.7---- 0.0------------
1983-07-21 14.4 19.6 8.6 6.5-- 4.7 4.0---- 0.0------------
1983-07-20 14.6 20.0 11.4 11.8-- 6.7 2.3---- 1.9------------
1983-07-19 19.8 29.4 17.5 16.5-- 7.7 3.7---- 6.4------------
1983-07-18 25.5 34.3 15.2 11.8-- 2.3 2.0---- 2.7------------
1983-07-17 21.3 27.6 12.4 10.0-- 0.0 0.7---- 0.0------------
1983-07-16 18.4 26.5 14.3 11.0-- 6.7 3.3---- 12.4------------
1983-07-15 20.8 27.4 14.2 10.4-- 0.3 2.3---- 0.0------------
1983-07-14 20.6 25.4 16.2 14.4-- 5.3 2.3---- 1.0------------
1983-07-13 20.6 25.0 13.6 10.8-- 4.7 3.0---- 0.0------------
1983-07-12 23.4 30.8 17.6 16.2-- 6.0 2.7---- 7.7------------
1983-07-11 23.9 31.0 16.8 13.2-- 2.3 3.3---- 0.0------------
1983-07-10 24.0 31.8 15.2 9.5-- 1.0 1.0---- 0.0------------
1983-07-09 22.0 29.9 13.2 7.6-- 0.7 1.3---- 0.0------------
1983-07-08 21.5 28.6 12.2 6.9-- 0.0 2.3---- 0.0------------
1983-07-07 23.6 30.9 16.0 11.4-- 0.7 3.0---- 0.0------------
1983-07-06 22.2 30.4 10.6 6.8-- 0.0 1.3---- 0.0------------
1983-07-05 20.1 26.6 8.7 5.2-- 1.0 0.0---- 0.0------------
1983-07-04 21.2 27.0 12.3 8.6-- 1.0 2.3---- 0.0------------
1983-07-03 18.2 26.0 7.3 3.8-- 5.0 1.3---- 0.0------------
1983-07-02 17.7 23.1 12.4 10.5-- 4.0 2.0---- 0.0------------
1983-07-01 19.4 26.3 11.4 6.5-- 7.3 1.7---- 1.8------------
1983-06-30 19.2 25.0 10.8 6.3-- 4.7 3.0---- 0.0------------
1983-06-29 14.2 20.0 5.4 1.0-- 5.0 2.7---- 0.0------------
1983-06-28 15.6 20.5 13.1 12.0-- 6.0 4.0---- 0.0------------
1983-06-27 18.4 24.7 13.3 10.0-- 8.0 1.7---- 4.8------------
1983-06-26 20.8 26.8 9.6 6.1-- 2.0 1.7---- 0.0------------
1983-06-25 19.9 29.2 9.8 6.2-- 4.7 1.7---- 0.0------------
1983-06-24 19.0 29.7 4.6 0.4-- 0.0 0.7---- 0.0------------
1983-06-23 16.9 23.9 6.4 -0.2-- 0.0 1.0---- 0.0------------
1983-06-22 15.8 23.1 9.2 7.7-- 0.0 2.7---- 0.0------------
1983-06-21 20.1 27.7 12.4 6.6-- 1.3 3.3---- 0.0------------
1983-06-20 19.0 26.3 11.3 9.5-- 0.3 2.0---- 0.0------------
1983-06-19 16.6 23.6 10.7 10.8-- 5.0 3.7---- 0.0------------
1983-06-18 13.9 17.3 11.2 10.0-- 7.7 2.7---- 0.0------------
1983-06-17 12.8 16.6 9.6 9.1-- 6.3 3.0---- 0.5------------
1983-06-16 13.5 18.4 10.4 9.6-- 4.0 4.0---- 0.0------------
529.0 ms

 

Źródłem pochodzenia danych jest Instytut Meteorologii i Gospodarki Wodnej – Państwowy Instytut Badawczy. Dane Instytutu Meteorologii i Gospodarki Wodnej – Państwowego Instytutu Badawczego zostały przetworzone.

Dane źródłowe można odnaleźć na stronie https://dane.imgw.pl